sensor_id;sensor_type;location;lat;lon;timestamp;P1;durP1;ratioP1;P2;durP2;ratioP2
39956;SDS011;48483;44.640;7.494;2023-03-07T00:01:03;30.52;;;20.45;;
39956;SDS011;48483;44.640;7.494;2023-03-07T00:03:30;28.23;;;20.55;;
39956;SDS011;48483;44.640;7.494;2023-03-07T00:06:00;28.65;;;19.60;;
39956;SDS011;48483;44.640;7.494;2023-03-07T00:08:28;25.55;;;19.58;;
39956;SDS011;48483;44.640;7.494;2023-03-07T00:10:54;30.02;;;20.63;;
39956;SDS011;48483;44.640;7.494;2023-03-07T00:13:25;26.73;;;20.00;;
39956;SDS011;48483;44.640;7.494;2023-03-07T00:15:55;20.83;;;14.75;;
39956;SDS011;48483;44.640;7.494;2023-03-07T00:18:27;23.02;;;18.88;;
39956;SDS011;48483;44.640;7.494;2023-03-07T00:20:57;27.35;;;19.40;;
39956;SDS011;48483;44.640;7.494;2023-03-07T00:23:24;27.50;;;20.00;;
39956;SDS011;48483;44.640;7.494;2023-03-07T00:25:58;28.65;;;20.10;;
39956;SDS011;48483;44.640;7.494;2023-03-07T00:28:25;27.85;;;18.42;;
39956;SDS011;48483;44.640;7.494;2023-03-07T00:30:52;26.45;;;18.98;;
39956;SDS011;48483;44.640;7.494;2023-03-07T00:33:19;27.80;;;20.08;;
39956;SDS011;48483;44.640;7.494;2023-03-07T00:35:54;26.60;;;21.08;;
39956;SDS011;48483;44.640;7.494;2023-03-07T00:38:22;28.88;;;19.20;;
39956;SDS011;48483;44.640;7.494;2023-03-07T00:40:55;29.25;;;21.88;;
39956;SDS011;48483;44.640;7.494;2023-03-07T00:43:23;28.73;;;20.33;;
39956;SDS011;48483;44.640;7.494;2023-03-07T00:45:50;28.20;;;20.25;;
39956;SDS011;48483;44.640;7.494;2023-03-07T02:01:28;28.55;;;19.23;;
39956;SDS011;48483;44.640;7.494;2023-03-07T02:03:56;30.58;;;20.45;;
39956;SDS011;48483;44.640;7.494;2023-03-07T02:06:28;26.17;;;19.92;;
39956;SDS011;48483;44.640;7.494;2023-03-07T02:08:56;27.92;;;19.30;;
39956;SDS011;48483;44.640;7.494;2023-03-07T02:11:25;28.20;;;19.00;;
39956;SDS011;48483;44.640;7.494;2023-03-07T02:13:52;30.20;;;20.23;;
39956;SDS011;48483;44.640;7.494;2023-03-07T02:16:19;26.88;;;17.85;;
39956;SDS011;48483;44.640;7.494;2023-03-07T02:18:47;26.98;;;18.17;;
39956;SDS011;48483;44.640;7.494;2023-03-07T02:21:18;26.38;;;18.02;;
39956;SDS011;48483;44.640;7.494;2023-03-07T02:23:55;25.13;;;18.42;;
39956;SDS011;48483;44.640;7.494;2023-03-07T02:26:37;25.17;;;19.42;;
39956;SDS011;48483;44.640;7.494;2023-03-07T02:29:11;26.45;;;18.85;;
39956;SDS011;48483;44.640;7.494;2023-03-07T02:31:40;25.85;;;18.77;;
39956;SDS011;48483;44.640;7.494;2023-03-07T02:34:17;26.88;;;19.55;;
39956;SDS011;48483;44.640;7.494;2023-03-07T02:36:46;29.27;;;20.33;;
39956;SDS011;48483;44.640;7.494;2023-03-07T02:39:19;29.75;;;20.60;;
39956;SDS011;48483;44.640;7.494;2023-03-07T02:41:51;29.35;;;21.45;;
39956;SDS011;48483;44.640;7.494;2023-03-07T02:44:28;35.17;;;22.00;;
39956;SDS011;48483;44.640;7.494;2023-03-07T02:46:55;28.38;;;19.95;;
39956;SDS011;48483;44.640;7.494;2023-03-07T02:49:25;28.70;;;19.50;;
39956;SDS011;48483;44.640;7.494;2023-03-07T02:51:51;27.05;;;19.80;;
39956;SDS011;48483;44.640;7.494;2023-03-07T02:54:23;30.95;;;20.52;;
39956;SDS011;48483;44.640;7.494;2023-03-07T02:56:51;28.50;;;20.15;;
39956;SDS011;48483;44.640;7.494;2023-03-07T02:59:18;29.98;;;21.88;;
39956;SDS011;48483;44.640;7.494;2023-03-07T03:01:45;29.33;;;20.38;;
39956;SDS011;48483;44.640;7.494;2023-03-07T03:04:12;30.90;;;21.77;;
39956;SDS011;48483;44.640;7.494;2023-03-07T03:06:38;29.33;;;21.00;;
39956;SDS011;48483;44.640;7.494;2023-03-07T03:09:05;30.13;;;20.55;;
39956;SDS011;48483;44.640;7.494;2023-03-07T03:11:32;31.52;;;23.02;;
39956;SDS011;48483;44.640;7.494;2023-03-07T03:14:00;31.20;;;20.38;;
39956;SDS011;48483;44.640;7.494;2023-03-07T03:16:28;32.00;;;21.95;;
39956;SDS011;48483;44.640;7.494;2023-03-07T03:18:55;29.73;;;22.85;;
39956;SDS011;48483;44.640;7.494;2023-03-07T03:21:22;29.27;;;20.73;;
39956;SDS011;48483;44.640;7.494;2023-03-07T03:23:48;30.13;;;22.67;;
39956;SDS011;48483;44.640;7.494;2023-03-07T03:26:15;35.40;;;23.05;;
39956;SDS011;48483;44.640;7.494;2023-03-07T03:28:42;31.45;;;23.42;;
39956;SDS011;48483;44.640;7.494;2023-03-07T03:31:11;33.55;;;23.25;;
39956;SDS011;48483;44.640;7.494;2023-03-07T03:33:41;35.53;;;23.90;;
39956;SDS011;48483;44.640;7.494;2023-03-07T03:36:13;42.17;;;26.00;;
39956;SDS011;48483;44.640;7.494;2023-03-07T03:38:43;33.08;;;23.67;;
39956;SDS011;48483;44.640;7.494;2023-03-07T03:41:12;36.42;;;25.77;;
39956;SDS011;48483;44.640;7.494;2023-03-07T03:43:41;32.33;;;22.48;;
39956;SDS011;48483;44.640;7.494;2023-03-07T03:46:08;32.50;;;23.20;;
39956;SDS011;48483;44.640;7.494;2023-03-07T03:48:37;33.88;;;23.92;;
39956;SDS011;48483;44.640;7.494;2023-03-07T03:51:05;35.13;;;25.63;;
39956;SDS011;48483;44.640;7.494;2023-03-07T03:53:34;36.53;;;24.17;;
39956;SDS011;48483;44.640;7.494;2023-03-07T03:56:03;34.30;;;23.77;;
39956;SDS011;48483;44.640;7.494;2023-03-07T03:58:31;32.80;;;23.25;;
39956;SDS011;48483;44.640;7.494;2023-03-07T04:00:59;31.08;;;23.13;;
39956;SDS011;48483;44.640;7.494;2023-03-07T04:03:28;31.80;;;22.58;;
39956;SDS011;48483;44.640;7.494;2023-03-07T04:05:58;34.33;;;24.42;;
39956;SDS011;48483;44.640;7.494;2023-03-07T04:08:26;33.42;;;22.55;;
39956;SDS011;48483;44.640;7.494;2023-03-07T04:10:53;33.60;;;22.90;;
39956;SDS011;48483;44.640;7.494;2023-03-07T04:13:20;29.25;;;20.90;;
39956;SDS011;48483;44.640;7.494;2023-03-07T04:15:49;30.00;;;19.67;;
39956;SDS011;48483;44.640;7.494;2023-03-07T04:18:17;33.95;;;19.73;;
39956;SDS011;48483;44.640;7.494;2023-03-07T04:20:45;27.08;;;18.65;;
39956;SDS011;48483;44.640;7.494;2023-03-07T04:23:12;25.35;;;18.08;;
39956;SDS011;48483;44.640;7.494;2023-03-07T04:25:39;27.75;;;18.17;;
39956;SDS011;48483;44.640;7.494;2023-03-07T04:28:05;23.92;;;18.30;;
39956;SDS011;48483;44.640;7.494;2023-03-07T04:30:32;28.23;;;18.08;;
39956;SDS011;48483;44.640;7.494;2023-03-07T04:32:59;24.95;;;17.90;;
39956;SDS011;48483;44.640;7.494;2023-03-07T04:35:26;23.60;;;17.92;;
39956;SDS011;48483;44.640;7.494;2023-03-07T04:37:55;30.63;;;16.92;;
39956;SDS011;48483;44.640;7.494;2023-03-07T04:40:22;28.10;;;17.85;;
39956;SDS011;48483;44.640;7.494;2023-03-07T04:42:49;26.25;;;17.92;;
39956;SDS011;48483;44.640;7.494;2023-03-07T04:45:18;26.70;;;17.05;;
39956;SDS011;48483;44.640;7.494;2023-03-07T04:47:44;27.73;;;18.48;;
39956;SDS011;48483;44.640;7.494;2023-03-07T04:50:11;31.80;;;17.50;;
39956;SDS011;48483;44.640;7.494;2023-03-07T04:52:40;28.75;;;18.48;;
39956;SDS011;48483;44.640;7.494;2023-03-07T04:55:09;29.60;;;19.13;;
39956;SDS011;48483;44.640;7.494;2023-03-07T04:57:36;26.73;;;17.92;;
39956;SDS011;48483;44.640;7.494;2023-03-07T05:00:03;24.77;;;16.30;;
39956;SDS011;48483;44.640;7.494;2023-03-07T05:02:34;24.85;;;17.65;;
39956;SDS011;48483;44.640;7.494;2023-03-07T05:05:02;28.63;;;17.48;;
39956;SDS011;48483;44.640;7.494;2023-03-07T05:07:30;23.30;;;17.55;;
39956;SDS011;48483;44.640;7.494;2023-03-07T05:09:56;23.35;;;17.17;;
39956;SDS011;48483;44.640;7.494;2023-03-07T05:12:25;23.77;;;15.85;;
39956;SDS011;48483;44.640;7.494;2023-03-07T05:14:53;24.17;;;16.63;;
39956;SDS011;48483;44.640;7.494;2023-03-07T05:17:20;23.83;;;16.48;;
39956;SDS011;48483;44.640;7.494;2023-03-07T05:19:47;22.90;;;16.02;;
39956;SDS011;48483;44.640;7.494;2023-03-07T05:22:14;24.05;;;16.10;;
39956;SDS011;48483;44.640;7.494;2023-03-07T05:24:42;23.00;;;16.52;;
39956;SDS011;48483;44.640;7.494;2023-03-07T05:27:09;22.35;;;15.10;;
39956;SDS011;48483;44.640;7.494;2023-03-07T05:29:38;23.10;;;15.85;;
39956;SDS011;48483;44.640;7.494;2023-03-07T05:32:05;23.25;;;16.10;;
39956;SDS011;48483;44.640;7.494;2023-03-07T05:34:32;26.45;;;15.80;;
39956;SDS011;48483;44.640;7.494;2023-03-07T05:36:59;28.30;;;17.17;;
39956;SDS011;48483;44.640;7.494;2023-03-07T05:39:27;25.88;;;15.93;;
39956;SDS011;48483;44.640;7.494;2023-03-07T05:41:53;23.33;;;16.67;;
39956;SDS011;48483;44.640;7.494;2023-03-07T05:44:20;21.05;;;14.85;;
39956;SDS011;48483;44.640;7.494;2023-03-07T05:46:49;26.00;;;15.55;;
39956;SDS011;48483;44.640;7.494;2023-03-07T05:49:15;21.60;;;15.88;;
39956;SDS011;48483;44.640;7.494;2023-03-07T05:51:42;28.70;;;15.15;;
39956;SDS011;48483;44.640;7.494;2023-03-07T05:54:09;37.78;;;18.10;;
39956;SDS011;48483;44.640;7.494;2023-03-07T05:56:35;27.77;;;15.20;;
39956;SDS011;48483;44.640;7.494;2023-03-07T05:59:03;24.65;;;16.27;;
39956;SDS011;48483;44.640;7.494;2023-03-07T06:01:33;28.07;;;17.67;;
39956;SDS011;48483;44.640;7.494;2023-03-07T06:04:01;55.85;;;19.63;;
39956;SDS011;48483;44.640;7.494;2023-03-07T06:06:28;31.77;;;18.38;;
39956;SDS011;48483;44.640;7.494;2023-03-07T06:08:54;29.05;;;17.70;;
39956;SDS011;48483;44.640;7.494;2023-03-07T06:11:22;25.75;;;17.27;;
39956;SDS011;48483;44.640;7.494;2023-03-07T06:13:48;23.65;;;16.30;;
39956;SDS011;48483;44.640;7.494;2023-03-07T06:16:15;29.27;;;17.90;;
39956;SDS011;48483;44.640;7.494;2023-03-07T06:18:42;24.05;;;17.10;;
39956;SDS011;48483;44.640;7.494;2023-03-07T06:21:12;32.33;;;18.23;;
39956;SDS011;48483;44.640;7.494;2023-03-07T06:23:43;26.88;;;17.58;;
39956;SDS011;48483;44.640;7.494;2023-03-07T06:26:14;34.97;;;17.55;;
39956;SDS011;48483;44.640;7.494;2023-03-07T06:28:43;27.15;;;17.48;;
39956;SDS011;48483;44.640;7.494;2023-03-07T06:31:12;26.20;;;16.25;;
39956;SDS011;48483;44.640;7.494;2023-03-07T06:33:40;26.20;;;16.45;;
39956;SDS011;48483;44.640;7.494;2023-03-07T06:36:07;24.92;;;16.77;;
39956;SDS011;48483;44.640;7.494;2023-03-07T06:38:39;25.25;;;16.60;;
39956;SDS011;48483;44.640;7.494;2023-03-07T06:41:07;25.87;;;14.00;;
39956;SDS011;48483;44.640;7.494;2023-03-07T06:43:33;26.30;;;16.15;;
39956;SDS011;48483;44.640;7.494;2023-03-07T06:46:01;28.77;;;18.25;;
39956;SDS011;48483;44.640;7.494;2023-03-07T06:48:32;31.52;;;17.30;;
39956;SDS011;48483;44.640;7.494;2023-03-07T06:51:04;35.60;;;19.27;;
39956;SDS011;48483;44.640;7.494;2023-03-07T06:53:32;35.03;;;18.30;;
39956;SDS011;48483;44.640;7.494;2023-03-07T06:56:01;36.15;;;18.92;;
39956;SDS011;48483;44.640;7.494;2023-03-07T06:58:27;58.47;;;19.75;;
39956;SDS011;48483;44.640;7.494;2023-03-07T07:00:54;27.67;;;16.60;;
39956;SDS011;48483;44.640;7.494;2023-03-07T07:03:21;28.02;;;17.27;;
39956;SDS011;48483;44.640;7.494;2023-03-07T07:05:48;27.77;;;15.70;;
39956;SDS011;48483;44.640;7.494;2023-03-07T07:08:15;32.80;;;17.90;;
39956;SDS011;48483;44.640;7.494;2023-03-07T07:10:42;36.47;;;19.20;;
39956;SDS011;48483;44.640;7.494;2023-03-07T07:13:10;37.35;;;17.90;;
39956;SDS011;48483;44.640;7.494;2023-03-07T07:15:38;30.52;;;19.52;;
39956;SDS011;48483;44.640;7.494;2023-03-07T07:18:05;45.58;;;20.90;;
39956;SDS011;48483;44.640;7.494;2023-03-07T07:20:33;39.03;;;18.92;;
39956;SDS011;48483;44.640;7.494;2023-03-07T07:23:01;64.32;;;21.13;;
39956;SDS011;48483;44.640;7.494;2023-03-07T07:25:28;55.20;;;20.13;;
39956;SDS011;48483;44.640;7.494;2023-03-07T07:27:55;47.65;;;18.92;;
39956;SDS011;48483;44.640;7.494;2023-03-07T07:30:23;42.80;;;18.20;;
39956;SDS011;48483;44.640;7.494;2023-03-07T07:32:50;32.47;;;18.38;;
39956;SDS011;48483;44.640;7.494;2023-03-07T07:35:17;33.15;;;18.30;;
39956;SDS011;48483;44.640;7.494;2023-03-07T07:37:44;31.73;;;19.80;;
39956;SDS011;48483;44.640;7.494;2023-03-07T07:40:11;31.77;;;20.25;;
39956;SDS011;48483;44.640;7.494;2023-03-07T07:42:39;27.17;;;18.98;;
39956;SDS011;48483;44.640;7.494;2023-03-07T07:45:31;22.50;;;15.30;;
39956;SDS011;48483;44.640;7.494;2023-03-07T07:47:58;27.33;;;18.55;;
39956;SDS011;48483;44.640;7.494;2023-03-07T07:50:25;46.88;;;22.30;;
39956;SDS011;48483;44.640;7.494;2023-03-07T07:52:52;62.72;;;22.77;;
39956;SDS011;48483;44.640;7.494;2023-03-07T07:55:19;36.95;;;20.63;;
39956;SDS011;48483;44.640;7.494;2023-03-07T07:57:47;33.92;;;19.73;;
39956;SDS011;48483;44.640;7.494;2023-03-07T08:00:14;30.50;;;19.92;;
39956;SDS011;48483;44.640;7.494;2023-03-07T08:02:47;31.58;;;19.33;;
39956;SDS011;48483;44.640;7.494;2023-03-07T08:05:15;28.88;;;19.40;;
39956;SDS011;48483;44.640;7.494;2023-03-07T08:07:42;38.78;;;19.92;;
39956;SDS011;48483;44.640;7.494;2023-03-07T08:10:09;30.77;;;20.45;;
39956;SDS011;48483;44.640;7.494;2023-03-07T08:12:41;35.17;;;19.92;;
39956;SDS011;48483;44.640;7.494;2023-03-07T08:15:08;33.08;;;19.80;;
39956;SDS011;48483;44.640;7.494;2023-03-07T08:17:35;30.52;;;17.58;;
39956;SDS011;48483;44.640;7.494;2023-03-07T08:20:04;25.73;;;18.10;;
39956;SDS011;48483;44.640;7.494;2023-03-07T08:22:34;27.75;;;18.58;;
39956;SDS011;48483;44.640;7.494;2023-03-07T08:25:01;27.98;;;18.95;;
39956;SDS011;48483;44.640;7.494;2023-03-07T08:27:29;24.05;;;18.30;;
39956;SDS011;48483;44.640;7.494;2023-03-07T08:29:56;27.83;;;18.17;;
39956;SDS011;48483;44.640;7.494;2023-03-07T08:32:23;29.25;;;18.83;;
39956;SDS011;48483;44.640;7.494;2023-03-07T08:34:49;25.02;;;16.92;;
39956;SDS011;48483;44.640;7.494;2023-03-07T08:37:17;26.83;;;18.02;;
39956;SDS011;48483;44.640;7.494;2023-03-07T08:39:44;27.08;;;17.95;;
39956;SDS011;48483;44.640;7.494;2023-03-07T08:42:10;24.95;;;17.23;;
39956;SDS011;48483;44.640;7.494;2023-03-07T08:44:37;23.92;;;17.10;;
39956;SDS011;48483;44.640;7.494;2023-03-07T08:47:04;25.73;;;16.70;;
39956;SDS011;48483;44.640;7.494;2023-03-07T08:49:31;21.38;;;16.13;;
39956;SDS011;48483;44.640;7.494;2023-03-07T08:51:57;27.73;;;15.75;;
39956;SDS011;48483;44.640;7.494;2023-03-07T08:54:26;25.20;;;16.70;;
39956;SDS011;48483;44.640;7.494;2023-03-07T08:56:53;24.58;;;16.50;;
39956;SDS011;48483;44.640;7.494;2023-03-07T08:59:19;28.08;;;17.17;;
39956;SDS011;48483;44.640;7.494;2023-03-07T09:01:46;29.05;;;17.98;;
39956;SDS011;48483;44.640;7.494;2023-03-07T09:04:13;23.80;;;17.20;;
39956;SDS011;48483;44.640;7.494;2023-03-07T09:06:40;24.10;;;17.30;;
39956;SDS011;48483;44.640;7.494;2023-03-07T09:09:06;31.65;;;19.98;;
39956;SDS011;48483;44.640;7.494;2023-03-07T09:11:35;28.08;;;17.85;;
39956;SDS011;48483;44.640;7.494;2023-03-07T09:14:01;25.67;;;17.88;;
39956;SDS011;48483;44.640;7.494;2023-03-07T09:16:28;27.92;;;18.70;;
39956;SDS011;48483;44.640;7.494;2023-03-07T09:18:55;26.20;;;18.23;;
39956;SDS011;48483;44.640;7.494;2023-03-07T09:21:21;28.50;;;18.33;;
39956;SDS011;48483;44.640;7.494;2023-03-07T09:23:48;31.00;;;18.60;;
39956;SDS011;48483;44.640;7.494;2023-03-07T09:26:15;27.58;;;17.95;;
39956;SDS011;48483;44.640;7.494;2023-03-07T09:28:43;24.00;;;18.27;;
39956;SDS011;48483;44.640;7.494;2023-03-07T09:31:10;33.30;;;18.33;;
39956;SDS011;48483;44.640;7.494;2023-03-07T09:33:39;31.45;;;18.27;;
39956;SDS011;48483;44.640;7.494;2023-03-07T09:36:07;25.55;;;17.70;;
39956;SDS011;48483;44.640;7.494;2023-03-07T09:38:36;26.73;;;17.55;;
39956;SDS011;48483;44.640;7.494;2023-03-07T09:41:05;22.17;;;17.15;;
39956;SDS011;48483;44.640;7.494;2023-03-07T09:43:46;27.08;;;16.80;;
39956;SDS011;48483;44.640;7.494;2023-03-07T09:46:40;23.48;;;16.40;;
39956;SDS011;48483;44.640;7.494;2023-03-07T09:49:18;24.70;;;16.95;;
39956;SDS011;48483;44.640;7.494;2023-03-07T09:51:47;24.65;;;17.63;;
39956;SDS011;48483;44.640;7.494;2023-03-07T09:54:17;24.08;;;16.52;;
39956;SDS011;48483;44.640;7.494;2023-03-07T09:56:47;28.05;;;17.65;;
39956;SDS011;48483;44.640;7.494;2023-03-07T09:59:19;23.95;;;18.23;;
39956;SDS011;48483;44.640;7.494;2023-03-07T10:01:54;25.83;;;17.20;;
39956;SDS011;48483;44.640;7.494;2023-03-07T10:04:29;25.30;;;17.48;;
39956;SDS011;48483;44.640;7.494;2023-03-07T10:07:04;20.58;;;16.40;;
39956;SDS011;48483;44.640;7.494;2023-03-07T10:09:34;26.35;;;17.85;;
39956;SDS011;48483;44.640;7.494;2023-03-07T10:12:06;28.15;;;18.33;;
39956;SDS011;48483;44.640;7.494;2023-03-07T10:17:39;29.90;;;19.00;;
39956;SDS011;48483;44.640;7.494;2023-03-07T10:20:21;28.50;;;17.60;;
39956;SDS011;48483;44.640;7.494;2023-03-07T10:22:52;25.42;;;19.35;;
39956;SDS011;48483;44.640;7.494;2023-03-07T10:25:26;27.85;;;18.67;;
39956;SDS011;48483;44.640;7.494;2023-03-07T10:27:59;26.48;;;19.40;;
39956;SDS011;48483;44.640;7.494;2023-03-07T10:30:30;28.02;;;20.50;;
39956;SDS011;48483;44.640;7.494;2023-03-07T10:32:58;27.27;;;20.08;;
39956;SDS011;48483;44.640;7.494;2023-03-07T10:35:30;26.65;;;20.85;;
39956;SDS011;48483;44.640;7.494;2023-03-07T10:38:03;35.00;;;19.35;;
39956;SDS011;48483;44.640;7.494;2023-03-07T10:40:40;30.80;;;20.23;;
39956;SDS011;48483;44.640;7.494;2023-03-07T10:43:11;27.08;;;19.55;;
39956;SDS011;48483;44.640;7.494;2023-03-07T10:45:48;33.95;;;21.00;;
39956;SDS011;48483;44.640;7.494;2023-03-07T10:48:17;30.75;;;19.42;;
39956;SDS011;48483;44.640;7.494;2023-03-07T10:50:48;29.08;;;20.52;;
39956;SDS011;48483;44.640;7.494;2023-03-07T10:53:21;28.70;;;20.98;;
39956;SDS011;48483;44.640;7.494;2023-03-07T10:55:51;36.47;;;21.63;;
39956;SDS011;48483;44.640;7.494;2023-03-07T10:58:21;32.88;;;21.95;;
39956;SDS011;48483;44.640;7.494;2023-03-07T11:01:10;33.15;;;21.38;;
39956;SDS011;48483;44.640;7.494;2023-03-07T11:03:43;27.45;;;20.05;;
39956;SDS011;48483;44.640;7.494;2023-03-07T11:06:26;30.58;;;21.77;;
39956;SDS011;48483;44.640;7.494;2023-03-07T11:08:55;29.05;;;21.67;;
39956;SDS011;48483;44.640;7.494;2023-03-07T11:11:32;26.42;;;20.80;;
39956;SDS011;48483;44.640;7.494;2023-03-07T11:14:05;30.48;;;21.13;;
39956;SDS011;48483;44.640;7.494;2023-03-07T11:16:39;32.97;;;21.60;;
39956;SDS011;48483;44.640;7.494;2023-03-07T11:19:22;33.53;;;21.80;;
39956;SDS011;48483;44.640;7.494;2023-03-07T11:22:02;30.42;;;22.40;;
39956;SDS011;48483;44.640;7.494;2023-03-07T11:24:40;32.92;;;22.38;;
39956;SDS011;48483;44.640;7.494;2023-03-07T11:27:16;33.55;;;22.05;;
39956;SDS011;48483;44.640;7.494;2023-03-07T11:29:54;30.45;;;22.77;;
39956;SDS011;48483;44.640;7.494;2023-03-07T11:32:43;33.55;;;22.65;;
39956;SDS011;48483;44.640;7.494;2023-03-07T11:35:17;28.65;;;22.60;;
39956;SDS011;48483;44.640;7.494;2023-03-07T11:37:47;29.13;;;21.33;;
39956;SDS011;48483;44.640;7.494;2023-03-07T11:40:27;29.77;;;22.30;;
39956;SDS011;48483;44.640;7.494;2023-03-07T11:43:02;33.50;;;22.30;;
39956;SDS011;48483;44.640;7.494;2023-03-07T11:45:36;30.13;;;22.50;;
39956;SDS011;48483;44.640;7.494;2023-03-07T11:48:15;32.72;;;21.88;;
39956;SDS011;48483;44.640;7.494;2023-03-07T11:50:50;31.10;;;22.35;;
39956;SDS011;48483;44.640;7.494;2023-03-07T11:53:25;35.97;;;26.77;;
39956;SDS011;48483;44.640;7.494;2023-03-07T11:56:00;32.90;;;21.75;;
39956;SDS011;48483;44.640;7.494;2023-03-07T11:58:42;28.25;;;21.27;;
39956;SDS011;48483;44.640;7.494;2023-03-07T12:01:19;32.78;;;22.50;;
39956;SDS011;48483;44.640;7.494;2023-03-07T12:04:00;28.83;;;21.67;;
39956;SDS011;48483;44.640;7.494;2023-03-07T12:06:55;31.77;;;22.70;;
39956;SDS011;48483;44.640;7.494;2023-03-07T12:09:38;28.77;;;22.20;;
39956;SDS011;48483;44.640;7.494;2023-03-07T12:12:13;27.85;;;20.98;;
39956;SDS011;48483;44.640;7.494;2023-03-07T12:15:00;31.05;;;22.15;;
39956;SDS011;48483;44.640;7.494;2023-03-07T12:17:41;30.90;;;23.53;;
39956;SDS011;48483;44.640;7.494;2023-03-07T12:20:21;29.02;;;20.95;;
39956;SDS011;48483;44.640;7.494;2023-03-07T12:22:55;31.05;;;22.15;;
39956;SDS011;48483;44.640;7.494;2023-03-07T12:25:30;32.67;;;22.95;;
39956;SDS011;48483;44.640;7.494;2023-03-07T12:28:11;29.48;;;21.63;;
39956;SDS011;48483;44.640;7.494;2023-03-07T12:30:50;29.63;;;20.80;;
39956;SDS011;48483;44.640;7.494;2023-03-07T12:33:26;25.15;;;19.98;;
39956;SDS011;48483;44.640;7.494;2023-03-07T12:36:07;32.28;;;21.92;;
39956;SDS011;48483;44.640;7.494;2023-03-07T12:38:42;28.25;;;22.33;;
39956;SDS011;48483;44.640;7.494;2023-03-07T12:41:19;28.10;;;20.95;;
39956;SDS011;48483;44.640;7.494;2023-03-07T12:43:52;29.77;;;21.75;;
39956;SDS011;48483;44.640;7.494;2023-03-07T12:46:23;29.60;;;22.15;;
39956;SDS011;48483;44.640;7.494;2023-03-07T12:48:58;31.33;;;23.50;;
39956;SDS011;48483;44.640;7.494;2023-03-07T12:51:32;30.85;;;23.05;;
39956;SDS011;48483;44.640;7.494;2023-03-07T12:54:03;27.90;;;21.58;;
39956;SDS011;48483;44.640;7.494;2023-03-07T12:56:39;33.45;;;24.73;;
39956;SDS011;48483;44.640;7.494;2023-03-07T12:59:13;30.75;;;23.45;;
39956;SDS011;48483;44.640;7.494;2023-03-07T13:01:42;34.17;;;23.73;;
39956;SDS011;48483;44.640;7.494;2023-03-07T13:04:14;32.33;;;22.88;;
39956;SDS011;48483;44.640;7.494;2023-03-07T13:06:44;31.23;;;22.58;;
39956;SDS011;48483;44.640;7.494;2023-03-07T13:09:14;27.73;;;20.60;;
39956;SDS011;48483;44.640;7.494;2023-03-07T13:14:49;27.90;;;21.23;;
39956;SDS011;48483;44.640;7.494;2023-03-07T13:23:20;27.25;;;20.25;;
39956;SDS011;48483;44.640;7.494;2023-03-07T13:25:58;30.50;;;21.10;;
39956;SDS011;48483;44.640;7.494;2023-03-07T13:28:44;32.22;;;20.50;;
39956;SDS011;48483;44.640;7.494;2023-03-07T13:31:23;34.90;;;22.63;;
39956;SDS011;48483;44.640;7.494;2023-03-07T13:43:30;29.77;;;20.45;;
39956;SDS011;48483;44.640;7.494;2023-03-07T13:46:26;24.52;;;19.25;;
39956;SDS011;48483;44.640;7.494;2023-03-07T13:49:08;26.35;;;19.73;;
39956;SDS011;48483;44.640;7.494;2023-03-07T13:51:34;27.33;;;19.35;;
39956;SDS011;48483;44.640;7.494;2023-03-07T13:54:02;39.88;;;20.13;;
39956;SDS011;48483;44.640;7.494;2023-03-07T13:56:33;25.92;;;19.23;;
39956;SDS011;48483;44.640;7.494;2023-03-07T13:59:02;23.60;;;18.08;;
39956;SDS011;48483;44.640;7.494;2023-03-07T14:01:39;25.08;;;20.30;;
39956;SDS011;48483;44.640;7.494;2023-03-07T14:04:10;28.95;;;19.02;;
39956;SDS011;48483;44.640;7.494;2023-03-07T14:06:42;28.27;;;19.88;;
39956;SDS011;48483;44.640;7.494;2023-03-07T14:09:11;27.30;;;19.58;;
39956;SDS011;48483;44.640;7.494;2023-03-07T14:11:45;25.48;;;19.55;;
39956;SDS011;48483;44.640;7.494;2023-03-07T14:14:32;29.83;;;20.92;;
39956;SDS011;48483;44.640;7.494;2023-03-07T14:17:13;27.70;;;20.05;;
39956;SDS011;48483;44.640;7.494;2023-03-07T14:19:51;31.27;;;21.45;;
39956;SDS011;48483;44.640;7.494;2023-03-07T14:22:26;27.83;;;20.83;;
39956;SDS011;48483;44.640;7.494;2023-03-07T14:25:10;30.75;;;20.90;;
39956;SDS011;48483;44.640;7.494;2023-03-07T14:27:52;30.55;;;20.95;;
39956;SDS011;48483;44.640;7.494;2023-03-07T14:30:21;31.05;;;21.25;;
39956;SDS011;48483;44.640;7.494;2023-03-07T14:32:48;28.80;;;21.60;;
39956;SDS011;48483;44.640;7.494;2023-03-07T14:35:30;28.85;;;20.77;;
39956;SDS011;48483;44.640;7.494;2023-03-07T14:37:58;28.73;;;21.25;;
39956;SDS011;48483;44.640;7.494;2023-03-07T14:40:27;33.10;;;21.80;;
39956;SDS011;48483;44.640;7.494;2023-03-07T14:43:03;38.25;;;22.80;;
39956;SDS011;48483;44.640;7.494;2023-03-07T14:45:41;26.65;;;20.77;;
39956;SDS011;48483;44.640;7.494;2023-03-07T14:50:59;30.58;;;22.05;;
39956;SDS011;48483;44.640;7.494;2023-03-07T14:53:31;32.75;;;22.25;;
39956;SDS011;48483;44.640;7.494;2023-03-07T14:55:59;29.25;;;21.42;;
39956;SDS011;48483;44.640;7.494;2023-03-07T14:58:33;37.20;;;24.77;;
39956;SDS011;48483;44.640;7.494;2023-03-07T15:01:02;29.23;;;21.05;;
39956;SDS011;48483;44.640;7.494;2023-03-07T15:03:30;26.50;;;21.30;;
39956;SDS011;48483;44.640;7.494;2023-03-07T15:05:58;29.17;;;23.35;;
39956;SDS011;48483;44.640;7.494;2023-03-07T15:08:27;28.83;;;22.45;;
39956;SDS011;48483;44.640;7.494;2023-03-07T15:10:56;32.40;;;22.73;;
39956;SDS011;48483;44.640;7.494;2023-03-07T15:13:30;29.55;;;21.95;;
39956;SDS011;48483;44.640;7.494;2023-03-07T15:16:04;32.92;;;22.00;;
39956;SDS011;48483;44.640;7.494;2023-03-07T15:18:37;34.55;;;22.85;;
39956;SDS011;48483;44.640;7.494;2023-03-07T15:21:07;31.02;;;22.02;;
39956;SDS011;48483;44.640;7.494;2023-03-07T15:23:40;29.20;;;22.35;;
39956;SDS011;48483;44.640;7.494;2023-03-07T15:26:12;31.20;;;23.77;;
39956;SDS011;48483;44.640;7.494;2023-03-07T15:28:47;30.02;;;21.50;;
39956;SDS011;48483;44.640;7.494;2023-03-07T15:31:14;32.95;;;22.70;;
39956;SDS011;48483;44.640;7.494;2023-03-07T15:33:41;30.48;;;21.90;;
39956;SDS011;48483;44.640;7.494;2023-03-07T15:36:18;31.40;;;21.80;;
39956;SDS011;48483;44.640;7.494;2023-03-07T15:38:50;29.75;;;20.08;;
39956;SDS011;48483;44.640;7.494;2023-03-07T15:41:23;28.77;;;20.83;;
39956;SDS011;48483;44.640;7.494;2023-03-07T15:44:13;31.10;;;21.75;;
39956;SDS011;48483;44.640;7.494;2023-03-07T15:46:43;26.90;;;20.83;;
39956;SDS011;48483;44.640;7.494;2023-03-07T15:49:18;32.50;;;22.10;;
39956;SDS011;48483;44.640;7.494;2023-03-07T15:51:48;34.63;;;23.20;;
39956;SDS011;48483;44.640;7.494;2023-03-07T15:54:19;29.63;;;21.88;;
39956;SDS011;48483;44.640;7.494;2023-03-07T15:56:57;34.72;;;23.05;;
39956;SDS011;48483;44.640;7.494;2023-03-07T15:59:30;32.28;;;22.08;;
39956;SDS011;48483;44.640;7.494;2023-03-07T16:04:55;29.95;;;22.52;;
39956;SDS011;48483;44.640;7.494;2023-03-07T16:07:21;31.20;;;22.00;;
39956;SDS011;48483;44.640;7.494;2023-03-07T16:09:48;29.38;;;21.38;;
39956;SDS011;48483;44.640;7.494;2023-03-07T16:12:16;28.75;;;21.63;;
39956;SDS011;48483;44.640;7.494;2023-03-07T16:14:46;27.77;;;20.20;;
39956;SDS011;48483;44.640;7.494;2023-03-07T16:17:16;31.23;;;20.60;;
39956;SDS011;48483;44.640;7.494;2023-03-07T16:19:45;32.08;;;22.15;;
39956;SDS011;48483;44.640;7.494;2023-03-07T16:22:12;34.20;;;20.85;;